Al Thakhira — C6UT5 — position and weather

sailwx.info

Track history (hours):
 
Tides and Currents Weather Stations Pressure Air Temp Water Temp Dewpoint Dewpoint Depression Visibility Wind Speed Wind Dir Waves Ship Positions

Al Thakhira

Last reported at 2018-Feb-14 15:45 UTC. Time now 2018-Feb-25 17:28 UTC.
Position N 31°09' E 032°19'.
Warning: this ship's position is 11 days out of date.

Length 283 m; draft 9.5 m.

Type: Ship (hazmat cat A). MMSI: 309975000.

Date/timePositionNaut miles runAvg speedWind from/ knotsBaromVisibWave heightAir tempDewpointWater temp
2018-Feb-14 15:45N 31°09' E 032°19'16 1.0
2018-Feb-13 23:15N 31°24' E 032°17'0 0.0
2018-Feb-13 23:00N 31°24' E 032°17'4 2.0
2018-Feb-13 21:00N 31°24' E 032°12'46013.5 270 / 81021.810.8 15.0 9.217.0
2018-Feb-12 11:00N 33°54' E 023°36'3030.5 270 / 111014.010.8 16.010.317.0
2018-Feb-12 10:00N 34°00' E 023°00'39216.3 230 / 111014.510.8 15.0 8.016.0
2018-Feb-11 10:00N 36°00' E 015°24'2814.9 290 / 141012.110.8 15.0 6.915.0
2018-Feb-11 08:07N 36°05' E 014°50'216.1
2018-Feb-11 07:59N 36°06' E 014°47'816.0
2018-Feb-11 07:30N 36°08' E 014°38'816.1
2018-Feb-11 07:00N 36°10' E 014°29'816.2
2018-Feb-11 06:30N 36°13' E 014°19'816.5
2018-Feb-11 06:00N 36°16' E 014°10'816.7
2018-Feb-11 05:30N 36°19' E 014°00'816.5
2018-Feb-11 05:00N 36°23' E 013°51'916.2
2018-Feb-11 04:29N 36°26' E 013°41'  
2018-Feb-08 20:30N 35°57' W 005°30'1615.9
2018-Feb-08 19:30N 35°54' W 005°50'1817.9
2018-Feb-08 18:30N 35°54' W 006°12'23813.7
2018-Feb-08 01:06N 38°22' W 010°06'217.5
2018-Feb-08 01:00N 38°24' W 010°07'1317.9
2018-Feb-08 00:16N 38°37' W 010°10'517.9
2018-Feb-08 00:00N 38°42' W 010°11'1117.8
2018-Feb-07 23:21N 38°53' W 010°12'617.7
2018-Feb-07 23:00N 38°59' W 010°11'917.5
2018-Feb-07 22:30N 39°08' W 010°11'917.3
2018-Feb-07 22:00N 39°17' W 010°12'67816.8
2018-Feb-06 05:38N 49°38' W 003°51'319.6
2018-Feb-06 05:29N 49°39' W 003°48'2220.2
2018-Feb-06 04:23N 49°49' W 003°17'3719.5
2018-Feb-06 02:30N 50°04' W 002°24'1218.1
2018-Feb-06 01:51N 50°07' W 002°07'617.1
2018-Feb-06 01:30N 50°08' W 001°58'816.4
2018-Feb-06 01:00N 50°11' W 001°46'1615.8
2018-Feb-06 00:00N 50°15' W 001°22'3416.5
2018-Feb-05 21:56N 50°23' W 000°30'818.5
2018-Feb-05 21:30N 50°26' W 000°18'2019.5
2018-Feb-05 20:30N 50°32' E 000°11'1020.2
2018-Feb-05 20:00N 50°36' E 000°26'1020.2
2018-Feb-05 19:30N 50°40' E 000°40'1019.7
2018-Feb-05 19:00N 50°46' E 000°53'1918.7
2018-Feb-05 18:00N 50°58' E 001°15'3216.0
2018-Feb-05 16:00N 51°19' E 001°53'3014.8
2018-Feb-05 13:58N 51°23' E 002°41'5 9.7
2018-Feb-05 13:29N 51°25' E 002°48'1414.2
2018-Feb-05 12:30N 51°23' E 003°10'3 5.8
2018-Feb-05 12:00N 51°21' E 003°13'0 0.2
2018-Feb-05 11:00N 51°21' E 003°13'0 0.0
2018-Feb-05 10:30N 51°21' E 003°13'0 0.0
2018-Feb-05 10:00N 51°21' E 003°13'0 0.0
2018-Feb-05 09:30N 51°21' E 003°13'0 0.0
2018-Feb-05 09:00N 51°21' E 003°13'0 0.0
2018-Feb-05 08:30N 51°21' E 003°13'0 0.0
2018-Feb-05 08:00N 51°21' E 003°13'0 0.0
2018-Feb-05 07:30N 51°21' E 003°13'0 0.0
2018-Feb-05 06:57N 51°21' E 003°13'0 0.0
2018-Feb-05 06:30N 51°21' E 003°13'0 0.0
2018-Feb-05 05:30N 51°21' E 003°13'0 0.0
2018-Feb-05 05:00N 51°21' E 003°13'0 0.0
2018-Feb-05 04:30N 51°21' E 003°13'0 0.0
2018-Feb-05 04:00N 51°21' E 003°13'0 0.0
2018-Feb-05 03:30N 51°21' E 003°13'0 0.0
2018-Feb-05 03:00N 51°21' E 003°13'0 0.0
2018-Feb-05 02:30N 51°21' E 003°13'0 0.0
2018-Feb-05 02:00N 51°21' E 003°13'0 0.0
2018-Feb-05 01:30N 51°21' E 003°13'0 0.0
2018-Feb-05 01:00N 51°21' E 003°13'0 0.0
2018-Feb-05 00:30N 51°21' E 003°13'0 0.0
2018-Feb-05 00:00N 51°21' E 003°13'0 0.0
2018-Feb-04 23:30N 51°21' E 003°13'0 0.0
2018-Feb-04 23:00N 51°21' E 003°13'0 0.0
2018-Feb-04 22:27N 51°21' E 003°13'0 0.0
2018-Feb-04 22:00N 51°21' E 003°13'0 0.0
2018-Feb-04 21:27N 51°21' E 003°13'0 0.0
2018-Feb-04 21:00N 51°21' E 003°13'0 0.0
2018-Feb-04 20:00N 51°21' E 003°13'0 0.0
2018-Feb-04 19:30N 51°21' E 003°13'0 0.0
2018-Feb-04 19:00N 51°21' E 003°13'0 0.0
2018-Feb-04 18:30N 51°21' E 003°13'0 0.0
2018-Feb-04 18:00N 51°21' E 003°13'0 0.0
2018-Feb-04 17:30N 51°21' E 003°13'  
Track history (hours):
 
Tides and Currents Weather Stations Pressure Air Temp Water Temp Dewpoint Dewpoint Depression Visibility Wind Speed Wind Dir Waves Ship Positions

Al Thakhira

Last reported at 2018-Feb-14 15:45 UTC. Time now 2018-Feb-25 17:28 UTC.
Position N 31°09' E 032°19'.
Warning: this ship's position is 11 days out of date.

Length 283 m; draft 9.5 m.

Type: Ship (hazmat cat A). MMSI: 309975000.

Date/timePositionNaut miles runAvg speedWind from/ knotsBaromVisibWave heightAir tempDewpointWater temp
2018-Feb-14 15:45N 31°09' E 032°19'16 1.0
2018-Feb-13 23:15N 31°24' E 032°17'0 0.0
2018-Feb-13 23:00N 31°24' E 032°17'4 2.0
2018-Feb-13 21:00N 31°24' E 032°12'46013.5 270 / 81021.810.8 15.0 9.217.0
2018-Feb-12 11:00N 33°54' E 023°36'3030.5 270 / 111014.010.8 16.010.317.0
2018-Feb-12 10:00N 34°00' E 023°00'39216.3 230 / 111014.510.8 15.0 8.016.0
2018-Feb-11 10:00N 36°00' E 015°24'2814.9 290 / 141012.110.8 15.0 6.915.0
2018-Feb-11 08:07N 36°05' E 014°50'216.1
2018-Feb-11 07:59N 36°06' E 014°47'816.0
2018-Feb-11 07:30N 36°08' E 014°38'816.1
2018-Feb-11 07:00N 36°10' E 014°29'816.2
2018-Feb-11 06:30N 36°13' E 014°19'816.5
2018-Feb-11 06:00N 36°16' E 014°10'816.7
2018-Feb-11 05:30N 36°19' E 014°00'816.5
2018-Feb-11 05:00N 36°23' E 013°51'916.2
2018-Feb-11 04:29N 36°26' E 013°41'  
2018-Feb-08 20:30N 35°57' W 005°30'1615.9
2018-Feb-08 19:30N 35°54' W 005°50'1817.9
2018-Feb-08 18:30N 35°54' W 006°12'23813.7
2018-Feb-08 01:06N 38°22' W 010°06'217.5
2018-Feb-08 01:00N 38°24' W 010°07'1317.9
2018-Feb-08 00:16N 38°37' W 010°10'517.9
2018-Feb-08 00:00N 38°42' W 010°11'1117.8
2018-Feb-07 23:21N 38°53' W 010°12'617.7
2018-Feb-07 23:00N 38°59' W 010°11'917.5
2018-Feb-07 22:30N 39°08' W 010°11'917.3
2018-Feb-07 22:00N 39°17' W 010°12'67816.8
2018-Feb-06 05:38N 49°38' W 003°51'319.6
2018-Feb-06 05:29N 49°39' W 003°48'2220.2
2018-Feb-06 04:23N 49°49' W 003°17'3719.5
2018-Feb-06 02:30N 50°04' W 002°24'1218.1
2018-Feb-06 01:51N 50°07' W 002°07'617.1
2018-Feb-06 01:30N 50°08' W 001°58'816.4
2018-Feb-06 01:00N 50°11' W 001°46'1615.8
2018-Feb-06 00:00N 50°15' W 001°22'3416.5
2018-Feb-05 21:56N 50°23' W 000°30'818.5
2018-Feb-05 21:30N 50°26' W 000°18'2019.5
2018-Feb-05 20:30N 50°32' E 000°11'1020.2
2018-Feb-05 20:00N 50°36' E 000°26'1020.2
2018-Feb-05 19:30N 50°40' E 000°40'1019.7
2018-Feb-05 19:00N 50°46' E 000°53'1918.7
2018-Feb-05 18:00N 50°58' E 001°15'3216.0
2018-Feb-05 16:00N 51°19' E 001°53'3014.8
2018-Feb-05 13:58N 51°23' E 002°41'5 9.7
2018-Feb-05 13:29N 51°25' E 002°48'1414.2
2018-Feb-05 12:30N 51°23' E 003°10'3 5.8
2018-Feb-05 12:00N 51°21' E 003°13'0 0.2
2018-Feb-05 11:00N 51°21' E 003°13'0 0.0
2018-Feb-05 10:30N 51°21' E 003°13'0 0.0
2018-Feb-05 10:00N 51°21' E 003°13'0 0.0
2018-Feb-05 09:30N 51°21' E 003°13'0 0.0
2018-Feb-05 09:00N 51°21' E 003°13'0 0.0
2018-Feb-05 08:30N 51°21' E 003°13'0 0.0
2018-Feb-05 08:00N 51°21' E 003°13'0 0.0
2018-Feb-05 07:30N 51°21' E 003°13'0 0.0
2018-Feb-05 06:57N 51°21' E 003°13'0 0.0
2018-Feb-05 06:30N 51°21' E 003°13'0 0.0
2018-Feb-05 05:30N 51°21' E 003°13'0 0.0
2018-Feb-05 05:00N 51°21' E 003°13'0 0.0
2018-Feb-05 04:30N 51°21' E 003°13'0 0.0
2018-Feb-05 04:00N 51°21' E 003°13'0 0.0
2018-Feb-05 03:30N 51°21' E 003°13'0 0.0
2018-Feb-05 03:00N 51°21' E 003°13'0 0.0
2018-Feb-05 02:30N 51°21' E 003°13'0 0.0
2018-Feb-05 02:00N 51°21' E 003°13'0 0.0
2018-Feb-05 01:30N 51°21' E 003°13'0 0.0
2018-Feb-05 01:00N 51°21' E 003°13'0 0.0
2018-Feb-05 00:30N 51°21' E 003°13'0 0.0
2018-Feb-05 00:00N 51°21' E 003°13'0 0.0
2018-Feb-04 23:30N 51°21' E 003°13'0 0.0
2018-Feb-04 23:00N 51°21' E 003°13'0 0.0
2018-Feb-04 22:27N 51°21' E 003°13'0 0.0
2018-Feb-04 22:00N 51°21' E 003°13'0 0.0
2018-Feb-04 21:27N 51°21' E 003°13'0 0.0
2018-Feb-04 21:00N 51°21' E 003°13'0 0.0
2018-Feb-04 20:00N 51°21' E 003°13'0 0.0
2018-Feb-04 19:30N 51°21' E 003°13'0 0.0
2018-Feb-04 19:00N 51°21' E 003°13'0 0.0
2018-Feb-04 18:30N 51°21' E 003°13'0 0.0
2018-Feb-04 18:00N 51°21' E 003°13'0 0.0
2018-Feb-04 17:30N 51°21' E 003°13'  

Dump ship's entire track history